sensor_id;sensor_type;location;lat;lon;timestamp;P1;durP1;ratioP1;P2;durP2;ratioP2
2674;SDS011;1347;42.122;24.746;2022-10-03T00:00:22;6.00;;;4.60;;
2674;SDS011;1347;42.122;24.746;2022-10-03T00:06:02;4.60;;;4.13;;
2674;SDS011;1347;42.122;24.746;2022-10-03T00:08:40;4.47;;;3.90;;
2674;SDS011;1347;42.122;24.746;2022-10-03T00:11:28;5.10;;;3.83;;
2674;SDS011;1347;42.122;24.746;2022-10-03T00:14:08;5.10;;;3.40;;
2674;SDS011;1347;42.122;24.746;2022-10-03T00:16:44;4.83;;;3.87;;
2674;SDS011;1347;42.122;24.746;2022-10-03T00:19:21;4.23;;;3.80;;
2674;SDS011;1347;42.122;24.746;2022-10-03T00:22:00;3.73;;;3.40;;
2674;SDS011;1347;42.122;24.746;2022-10-03T00:24:41;4.17;;;3.33;;
2674;SDS011;1347;42.122;24.746;2022-10-03T00:27:16;4.10;;;3.20;;
2674;SDS011;1347;42.122;24.746;2022-10-03T00:30:00;3.73;;;3.37;;
2674;SDS011;1347;42.122;24.746;2022-10-03T00:32:36;4.77;;;3.23;;
2674;SDS011;1347;42.122;24.746;2022-10-03T00:35:17;6.40;;;3.53;;
2674;SDS011;1347;42.122;24.746;2022-10-03T00:37:59;5.53;;;3.10;;
2674;SDS011;1347;42.122;24.746;2022-10-03T00:43:41;4.27;;;3.27;;
2674;SDS011;1347;42.122;24.746;2022-10-03T00:49:46;4.43;;;3.20;;
2674;SDS011;1347;42.122;24.746;2022-10-03T00:52:42;4.40;;;3.00;;
2674;SDS011;1347;42.122;24.746;2022-10-03T00:55:30;4.50;;;3.50;;
2674;SDS011;1347;42.122;24.746;2022-10-03T00:58:10;4.20;;;2.63;;
2674;SDS011;1347;42.122;24.746;2022-10-03T01:00:48;2.60;;;2.40;;
2674;SDS011;1347;42.122;24.746;2022-10-03T01:03:28;6.47;;;2.57;;
2674;SDS011;1347;42.122;24.746;2022-10-03T01:06:08;2.60;;;1.97;;
2674;SDS011;1347;42.122;24.746;2022-10-03T01:08:56;4.40;;;2.27;;
2674;SDS011;1347;42.122;24.746;2022-10-03T01:11:36;3.10;;;2.00;;
2674;SDS011;1347;42.122;24.746;2022-10-03T01:14:19;2.83;;;2.50;;
2674;SDS011;1347;42.122;24.746;2022-10-03T01:16:58;3.47;;;2.43;;
2674;SDS011;1347;42.122;24.746;2022-10-03T01:22:45;2.70;;;2.27;;
2674;SDS011;1347;42.122;24.746;2022-10-03T01:25:31;3.27;;;2.53;;
2674;SDS011;1347;42.122;24.746;2022-10-03T01:28:16;4.40;;;2.70;;
2674;SDS011;1347;42.122;24.746;2022-10-03T01:31:08;4.13;;;3.23;;
2674;SDS011;1347;42.122;24.746;2022-10-03T01:33:39;4.20;;;2.67;;
2674;SDS011;1347;42.122;24.746;2022-10-03T01:36:11;4.07;;;3.03;;
2674;SDS011;1347;42.122;24.746;2022-10-03T01:38:48;3.87;;;3.07;;
2674;SDS011;1347;42.122;24.746;2022-10-03T01:41:23;3.97;;;2.83;;
2674;SDS011;1347;42.122;24.746;2022-10-03T01:44:00;2.83;;;2.53;;
2674;SDS011;1347;42.122;24.746;2022-10-03T01:46:37;3.40;;;2.43;;
2674;SDS011;1347;42.122;24.746;2022-10-03T01:49:12;2.67;;;2.47;;
2674;SDS011;1347;42.122;24.746;2022-10-03T01:51:48;2.73;;;2.10;;
2674;SDS011;1347;42.122;24.746;2022-10-03T01:54:26;3.53;;;2.47;;
2674;SDS011;1347;42.122;24.746;2022-10-03T01:56:59;4.03;;;2.40;;
2674;SDS011;1347;42.122;24.746;2022-10-03T01:59:38;3.40;;;2.30;;
2674;SDS011;1347;42.122;24.746;2022-10-03T02:02:13;3.30;;;2.40;;
2674;SDS011;1347;42.122;24.746;2022-10-03T02:04:47;2.03;;;1.83;;
2674;SDS011;1347;42.122;24.746;2022-10-03T02:07:22;5.63;;;2.50;;
2674;SDS011;1347;42.122;24.746;2022-10-03T02:09:58;3.33;;;2.10;;
2674;SDS011;1347;42.122;24.746;2022-10-03T02:12:31;3.30;;;3.00;;
2674;SDS011;1347;42.122;24.746;2022-10-03T02:15:10;3.03;;;2.73;;
2674;SDS011;1347;42.122;24.746;2022-10-03T02:17:42;3.93;;;3.50;;
2674;SDS011;1347;42.122;24.746;2022-10-03T02:20:20;4.53;;;3.87;;
2674;SDS011;1347;42.122;24.746;2022-10-03T02:22:52;6.80;;;3.80;;
2674;SDS011;1347;42.122;24.746;2022-10-03T02:25:25;6.80;;;4.77;;
2674;SDS011;1347;42.122;24.746;2022-10-03T02:34:46;6.70;;;4.80;;
2674;SDS011;1347;42.122;24.746;2022-10-03T02:37:48;8.30;;;4.43;;
2674;SDS011;1347;42.122;24.746;2022-10-03T02:49:39;4.40;;;4.00;;
2674;SDS011;1347;42.122;24.746;2022-10-03T02:55:31;7.63;;;5.43;;
2674;SDS011;1347;42.122;24.746;2022-10-03T03:01:37;6.30;;;4.73;;
2674;SDS011;1347;42.122;24.746;2022-10-03T03:04:39;5.20;;;4.20;;
2674;SDS011;1347;42.122;24.746;2022-10-03T03:07:38;8.43;;;4.90;;
2674;SDS011;1347;42.122;24.746;2022-10-03T03:16:31;4.40;;;4.00;;
2674;SDS011;1347;42.122;24.746;2022-10-03T03:19:15;5.00;;;4.47;;
2674;SDS011;1347;42.122;24.746;2022-10-03T03:22:08;6.43;;;4.90;;
2674;SDS011;1347;42.122;24.746;2022-10-03T03:24:55;7.03;;;5.50;;
2674;SDS011;1347;42.122;24.746;2022-10-03T03:27:39;5.93;;;5.33;;
2674;SDS011;1347;42.122;24.746;2022-10-03T03:30:17;9.40;;;6.20;;
2674;SDS011;1347;42.122;24.746;2022-10-03T03:32:50;14.40;;;11.63;;
2674;SDS011;1347;42.122;24.746;2022-10-03T03:35:27;15.97;;;11.87;;
2674;SDS011;1347;42.122;24.746;2022-10-03T03:38:10;29.00;;;13.20;;
2674;SDS011;1347;42.122;24.746;2022-10-03T03:40:50;15.00;;;13.27;;
2674;SDS011;1347;42.122;24.746;2022-10-03T03:43:36;18.30;;;13.10;;
2674;SDS011;1347;42.122;24.746;2022-10-03T03:46:17;17.73;;;14.60;;
2674;SDS011;1347;42.122;24.746;2022-10-03T03:49:08;21.07;;;14.77;;
2674;SDS011;1347;42.122;24.746;2022-10-03T03:51:47;17.30;;;15.53;;
2674;SDS011;1347;42.122;24.746;2022-10-03T03:54:42;26.50;;;18.63;;
2674;SDS011;1347;42.122;24.746;2022-10-03T03:57:33;24.53;;;21.03;;
2674;SDS011;1347;42.122;24.746;2022-10-03T04:00:27;33.33;;;25.67;;
2674;SDS011;1347;42.122;24.746;2022-10-03T04:03:11;37.70;;;28.40;;
2674;SDS011;1347;42.122;24.746;2022-10-03T04:05:58;39.70;;;29.83;;
2674;SDS011;1347;42.122;24.746;2022-10-03T04:08:37;27.47;;;22.47;;
2674;SDS011;1347;42.122;24.746;2022-10-03T04:11:26;29.87;;;22.87;;
2674;SDS011;1347;42.122;24.746;2022-10-03T04:17:12;28.17;;;20.10;;
2674;SDS011;1347;42.122;24.746;2022-10-03T04:20:11;27.17;;;19.03;;
2674;SDS011;1347;42.122;24.746;2022-10-03T04:22:53;19.63;;;14.20;;
2674;SDS011;1347;42.122;24.746;2022-10-03T04:25:40;18.43;;;14.13;;
2674;SDS011;1347;42.122;24.746;2022-10-03T04:28:29;26.97;;;18.40;;
2674;SDS011;1347;42.122;24.746;2022-10-03T04:31:08;44.80;;;33.00;;
2674;SDS011;1347;42.122;24.746;2022-10-03T04:33:51;53.67;;;36.33;;
2674;SDS011;1347;42.122;24.746;2022-10-03T04:36:47;52.13;;;33.60;;
2674;SDS011;1347;42.122;24.746;2022-10-03T04:39:36;49.80;;;33.60;;
2674;SDS011;1347;42.122;24.746;2022-10-03T04:42:15;42.73;;;29.30;;
2674;SDS011;1347;42.122;24.746;2022-10-03T04:44:59;39.23;;;25.07;;
2674;SDS011;1347;42.122;24.746;2022-10-03T04:47:33;34.13;;;25.70;;
2674;SDS011;1347;42.122;24.746;2022-10-03T04:50:14;40.03;;;26.40;;
2674;SDS011;1347;42.122;24.746;2022-10-03T04:52:54;35.40;;;23.67;;
2674;SDS011;1347;42.122;24.746;2022-10-03T04:55:32;36.67;;;20.43;;
2674;SDS011;1347;42.122;24.746;2022-10-03T04:58:06;28.53;;;16.63;;
2674;SDS011;1347;42.122;24.746;2022-10-03T05:00:49;20.33;;;14.50;;
2674;SDS011;1347;42.122;24.746;2022-10-03T05:03:26;19.13;;;12.40;;
2674;SDS011;1347;42.122;24.746;2022-10-03T05:06:01;15.27;;;12.33;;
2674;SDS011;1347;42.122;24.746;2022-10-03T05:08:37;17.47;;;9.63;;
2674;SDS011;1347;42.122;24.746;2022-10-03T05:11:14;13.37;;;8.33;;
2674;SDS011;1347;42.122;24.746;2022-10-03T05:13:50;12.30;;;6.90;;
2674;SDS011;1347;42.122;24.746;2022-10-03T05:16:30;11.73;;;7.30;;
2674;SDS011;1347;42.122;24.746;2022-10-03T05:19:08;9.23;;;6.40;;
2674;SDS011;1347;42.122;24.746;2022-10-03T05:21:53;8.77;;;5.73;;
2674;SDS011;1347;42.122;24.746;2022-10-03T05:24:25;11.53;;;7.97;;
2674;SDS011;1347;42.122;24.746;2022-10-03T05:27:10;13.00;;;7.80;;
2674;SDS011;1347;42.122;24.746;2022-10-03T05:29:47;11.90;;;6.87;;
2674;SDS011;1347;42.122;24.746;2022-10-03T05:32:25;9.53;;;6.50;;
2674;SDS011;1347;42.122;24.746;2022-10-03T05:34:59;9.93;;;6.50;;
2674;SDS011;1347;42.122;24.746;2022-10-03T05:37:53;24.03;;;7.30;;
2674;SDS011;1347;42.122;24.746;2022-10-03T05:40:36;14.00;;;7.33;;
2674;SDS011;1347;42.122;24.746;2022-10-03T05:43:11;9.73;;;6.73;;
2674;SDS011;1347;42.122;24.746;2022-10-03T05:45:53;12.50;;;6.63;;
2674;SDS011;1347;42.122;24.746;2022-10-03T05:48:32;9.60;;;6.30;;
2674;SDS011;1347;42.122;24.746;2022-10-03T05:54:41;7.30;;;4.30;;
2674;SDS011;1347;42.122;24.746;2022-10-03T06:00:19;7.23;;;4.70;;
2674;SDS011;1347;42.122;24.746;2022-10-03T06:06:14;6.00;;;4.20;;
2674;SDS011;1347;42.122;24.746;2022-10-03T06:08:54;6.60;;;3.60;;
2674;SDS011;1347;42.122;24.746;2022-10-03T06:11:50;5.10;;;4.00;;
2674;SDS011;1347;42.122;24.746;2022-10-03T06:14:28;11.27;;;4.70;;
2674;SDS011;1347;42.122;24.746;2022-10-03T06:17:13;7.93;;;4.87;;
2674;SDS011;1347;42.122;24.746;2022-10-03T06:19:54;7.97;;;6.00;;
2674;SDS011;1347;42.122;24.746;2022-10-03T06:38:00;7.53;;;5.03;;
2674;SDS011;1347;42.122;24.746;2022-10-03T06:44:15;10.10;;;4.83;;
2674;SDS011;1347;42.122;24.746;2022-10-03T06:47:01;10.97;;;5.70;;
2674;SDS011;1347;42.122;24.746;2022-10-03T06:50:04;11.33;;;6.40;;
2674;SDS011;1347;42.122;24.746;2022-10-03T06:52:56;20.63;;;7.47;;
2674;SDS011;1347;42.122;24.746;2022-10-03T06:55:38;7.93;;;6.30;;
2674;SDS011;1347;42.122;24.746;2022-10-03T07:11:11;6.93;;;6.00;;
2674;SDS011;1347;42.122;24.746;2022-10-03T07:16:58;7.70;;;5.27;;
2674;SDS011;1347;42.122;24.746;2022-10-03T07:19:58;7.07;;;4.90;;
2674;SDS011;1347;42.122;24.746;2022-10-03T07:22:41;4.70;;;4.30;;
2674;SDS011;1347;42.122;24.746;2022-10-03T07:25:38;6.60;;;5.10;;
2674;SDS011;1347;42.122;24.746;2022-10-03T07:31:34;7.27;;;4.80;;
2674;SDS011;1347;42.122;24.746;2022-10-03T07:34:23;6.70;;;4.67;;
2674;SDS011;1347;42.122;24.746;2022-10-03T07:37:16;5.43;;;4.03;;
2674;SDS011;1347;42.122;24.746;2022-10-03T07:46:12;6.57;;;3.90;;
2674;SDS011;1347;42.122;24.746;2022-10-03T07:49:08;6.57;;;4.40;;
2674;SDS011;1347;42.122;24.746;2022-10-03T07:51:52;6.50;;;5.20;;
2674;SDS011;1347;42.122;24.746;2022-10-03T07:54:47;8.53;;;5.03;;
2674;SDS011;1347;42.122;24.746;2022-10-03T07:57:36;6.40;;;4.90;;
2674;SDS011;1347;42.122;24.746;2022-10-03T08:00:22;6.00;;;4.33;;
2674;SDS011;1347;42.122;24.746;2022-10-03T08:06:15;10.27;;;4.23;;
2674;SDS011;1347;42.122;24.746;2022-10-03T08:15:21;4.73;;;4.23;;
2674;SDS011;1347;42.122;24.746;2022-10-03T08:20:53;7.43;;;5.30;;
2674;SDS011;1347;42.122;24.746;2022-10-03T08:26:40;5.33;;;3.90;;
2674;SDS011;1347;42.122;24.746;2022-10-03T08:29:26;4.60;;;3.67;;
2674;SDS011;1347;42.122;24.746;2022-10-03T08:32:26;10.00;;;4.70;;
2674;SDS011;1347;42.122;24.746;2022-10-03T08:35:24;7.07;;;5.03;;
2674;SDS011;1347;42.122;24.746;2022-10-03T08:44:03;7.30;;;4.20;;
2674;SDS011;1347;42.122;24.746;2022-10-03T08:47:14;7.73;;;4.73;;
2674;SDS011;1347;42.122;24.746;2022-10-03T08:53:21;12.60;;;3.80;;
2674;SDS011;1347;42.122;24.746;2022-10-03T08:56:20;7.37;;;3.80;;
2674;SDS011;1347;42.122;24.746;2022-10-03T09:02:02;7.60;;;4.03;;
2674;SDS011;1347;42.122;24.746;2022-10-03T09:05:09;5.60;;;4.00;;
2674;SDS011;1347;42.122;24.746;2022-10-03T09:08:28;13.20;;;4.40;;
2674;SDS011;1347;42.122;24.746;2022-10-03T09:11:18;5.47;;;3.00;;
2674;SDS011;1347;42.122;24.746;2022-10-03T09:26:35;4.63;;;3.43;;
2674;SDS011;1347;42.122;24.746;2022-10-03T09:29:28;7.43;;;3.40;;
2674;SDS011;1347;42.122;24.746;2022-10-03T09:32:20;5.27;;;3.20;;
2674;SDS011;1347;42.122;24.746;2022-10-03T09:38:21;5.67;;;4.00;;
2674;SDS011;1347;42.122;24.746;2022-10-03T09:44:32;3.50;;;3.20;;
2674;SDS011;1347;42.122;24.746;2022-10-03T09:47:14;6.73;;;3.00;;
2674;SDS011;1347;42.122;24.746;2022-10-03T09:53:24;9.90;;;3.10;;
2674;SDS011;1347;42.122;24.746;2022-10-03T09:56:10;7.10;;;3.17;;
2674;SDS011;1347;42.122;24.746;2022-10-03T09:59:07;8.53;;;3.07;;
2674;SDS011;1347;42.122;24.746;2022-10-03T10:01:50;5.43;;;2.53;;
2674;SDS011;1347;42.122;24.746;2022-10-03T10:07:52;9.33;;;2.60;;
2674;SDS011;1347;42.122;24.746;2022-10-03T10:13:28;5.70;;;3.80;;
2674;SDS011;1347;42.122;24.746;2022-10-03T10:22:27;9.07;;;2.67;;
2674;SDS011;1347;42.122;24.746;2022-10-03T10:25:27;7.43;;;2.13;;
2674;SDS011;1347;42.122;24.746;2022-10-03T10:34:33;2.13;;;1.40;;
2674;SDS011;1347;42.122;24.746;2022-10-03T10:37:38;1.70;;;1.60;;
2674;SDS011;1347;42.122;24.746;2022-10-03T10:40:36;3.93;;;1.50;;
2674;SDS011;1347;42.122;24.746;2022-10-03T10:46:53;2.97;;;2.30;;
2674;SDS011;1347;42.122;24.746;2022-10-03T10:52:49;5.47;;;1.47;;
2674;SDS011;1347;42.122;24.746;2022-10-03T10:56:04;1.93;;;1.73;;
2674;SDS011;1347;42.122;24.746;2022-10-03T10:59:31;2.83;;;2.00;;
2674;SDS011;1347;42.122;24.746;2022-10-03T11:05:38;7.40;;;3.30;;
2674;SDS011;1347;42.122;24.746;2022-10-03T11:14:56;4.37;;;2.70;;
2674;SDS011;1347;42.122;24.746;2022-10-03T11:21:23;3.73;;;2.43;;
2674;SDS011;1347;42.122;24.746;2022-10-03T11:36:47;2.80;;;2.30;;
2674;SDS011;1347;42.122;24.746;2022-10-03T11:39:43;2.93;;;2.53;;
2674;SDS011;1347;42.122;24.746;2022-10-03T11:42:23;6.00;;;3.10;;
2674;SDS011;1347;42.122;24.746;2022-10-03T11:44:58;3.00;;;2.60;;
2674;SDS011;1347;42.122;24.746;2022-10-03T11:47:50;4.27;;;2.80;;
2674;SDS011;1347;42.122;24.746;2022-10-03T11:50:32;4.50;;;2.10;;
2674;SDS011;1347;42.122;24.746;2022-10-03T11:53:11;6.83;;;3.27;;
2674;SDS011;1347;42.122;24.746;2022-10-03T11:55:49;3.77;;;2.60;;
2674;SDS011;1347;42.122;24.746;2022-10-03T11:58:30;8.03;;;3.83;;
2674;SDS011;1347;42.122;24.746;2022-10-03T12:01:10;3.10;;;2.87;;
2674;SDS011;1347;42.122;24.746;2022-10-03T12:04:01;3.77;;;2.40;;
2674;SDS011;1347;42.122;24.746;2022-10-03T12:06:41;3.37;;;3.07;;
2674;SDS011;1347;42.122;24.746;2022-10-03T12:09:37;7.30;;;3.47;;
2674;SDS011;1347;42.122;24.746;2022-10-03T12:12:14;3.60;;;3.20;;
2674;SDS011;1347;42.122;24.746;2022-10-03T12:14:52;4.33;;;4.00;;
2674;SDS011;1347;42.122;24.746;2022-10-03T12:17:27;5.23;;;3.40;;
2674;SDS011;1347;42.122;24.746;2022-10-03T12:20:01;3.57;;;3.27;;
2674;SDS011;1347;42.122;24.746;2022-10-03T12:22:34;4.03;;;3.63;;
2674;SDS011;1347;42.122;24.746;2022-10-03T12:25:15;4.87;;;4.47;;
2674;SDS011;1347;42.122;24.746;2022-10-03T12:30:41;4.53;;;3.37;;
2674;SDS011;1347;42.122;24.746;2022-10-03T12:33:21;4.70;;;4.30;;
2674;SDS011;1347;42.122;24.746;2022-10-03T12:36:00;5.00;;;4.60;;
2674;SDS011;1347;42.122;24.746;2022-10-03T12:38:39;3.83;;;3.40;;
2674;SDS011;1347;42.122;24.746;2022-10-03T12:41:19;3.80;;;3.50;;
2674;SDS011;1347;42.122;24.746;2022-10-03T12:44:01;5.73;;;4.00;;
2674;SDS011;1347;42.122;24.746;2022-10-03T12:46:43;8.10;;;4.13;;
2674;SDS011;1347;42.122;24.746;2022-10-03T12:49:16;3.37;;;3.10;;
2674;SDS011;1347;42.122;24.746;2022-10-03T12:51:53;3.57;;;2.97;;
2674;SDS011;1347;42.122;24.746;2022-10-03T12:54:34;5.20;;;3.07;;
2674;SDS011;1347;42.122;24.746;2022-10-03T12:57:25;3.10;;;2.90;;
2674;SDS011;1347;42.122;24.746;2022-10-03T13:00:16;3.23;;;2.77;;
2674;SDS011;1347;42.122;24.746;2022-10-03T13:02:52;5.23;;;3.53;;
2674;SDS011;1347;42.122;24.746;2022-10-03T13:05:29;2.70;;;2.50;;
2674;SDS011;1347;42.122;24.746;2022-10-03T13:08:05;4.50;;;3.27;;
2674;SDS011;1347;42.122;24.746;2022-10-03T13:10:49;3.20;;;2.90;;
2674;SDS011;1347;42.122;24.746;2022-10-03T13:13:23;3.57;;;3.27;;
2674;SDS011;1347;42.122;24.746;2022-10-03T13:15:58;4.53;;;3.33;;
2674;SDS011;1347;42.122;24.746;2022-10-03T13:18:50;3.20;;;3.00;;
2674;SDS011;1347;42.122;24.746;2022-10-03T13:21:24;3.57;;;3.27;;
2674;SDS011;1347;42.122;24.746;2022-10-03T13:24:05;3.47;;;3.17;;
2674;SDS011;1347;42.122;24.746;2022-10-03T13:26:39;2.97;;;2.73;;
2674;SDS011;1347;42.122;24.746;2022-10-03T13:29:24;3.20;;;2.90;;
2674;SDS011;1347;42.122;24.746;2022-10-03T13:31:57;4.20;;;2.90;;
2674;SDS011;1347;42.122;24.746;2022-10-03T13:34:44;3.20;;;2.90;;
2674;SDS011;1347;42.122;24.746;2022-10-03T13:37:23;3.03;;;2.83;;
2674;SDS011;1347;42.122;24.746;2022-10-03T13:40:00;7.50;;;3.37;;
2674;SDS011;1347;42.122;24.746;2022-10-03T13:42:35;3.27;;;3.07;;
2674;SDS011;1347;42.122;24.746;2022-10-03T13:45:10;3.10;;;2.90;;
2674;SDS011;1347;42.122;24.746;2022-10-03T13:47:42;3.47;;;3.20;;
2674;SDS011;1347;42.122;24.746;2022-10-03T13:50:13;3.43;;;3.20;;
2674;SDS011;1347;42.122;24.746;2022-10-03T13:52:44;4.93;;;3.00;;
2674;SDS011;1347;42.122;24.746;2022-10-03T13:55:23;3.10;;;2.60;;
2674;SDS011;1347;42.122;24.746;2022-10-03T13:58:14;2.93;;;2.73;;
2674;SDS011;1347;42.122;24.746;2022-10-03T14:01:01;3.67;;;2.50;;
2674;SDS011;1347;42.122;24.746;2022-10-03T14:03:39;3.30;;;2.50;;
2674;SDS011;1347;42.122;24.746;2022-10-03T14:06:17;4.63;;;2.63;;
2674;SDS011;1347;42.122;24.746;2022-10-03T14:09:01;3.30;;;2.03;;
2674;SDS011;1347;42.122;24.746;2022-10-03T14:11:58;2.87;;;2.67;;
2674;SDS011;1347;42.122;24.746;2022-10-03T14:17:21;2.97;;;2.50;;
2674;SDS011;1347;42.122;24.746;2022-10-03T14:20:02;2.80;;;2.60;;
2674;SDS011;1347;42.122;24.746;2022-10-03T14:22:48;4.43;;;2.03;;
2674;SDS011;1347;42.122;24.746;2022-10-03T14:25:24;2.60;;;2.40;;
2674;SDS011;1347;42.122;24.746;2022-10-03T14:27:55;3.13;;;2.53;;
2674;SDS011;1347;42.122;24.746;2022-10-03T14:30:28;5.03;;;2.30;;
2674;SDS011;1347;42.122;24.746;2022-10-03T14:33:04;2.20;;;2.00;;
2674;SDS011;1347;42.122;24.746;2022-10-03T14:35:44;2.30;;;2.10;;
2674;SDS011;1347;42.122;24.746;2022-10-03T14:41:26;3.13;;;2.47;;
2674;SDS011;1347;42.122;24.746;2022-10-03T14:44:17;2.50;;;2.30;;
2674;SDS011;1347;42.122;24.746;2022-10-03T14:46:49;5.17;;;2.87;;
2674;SDS011;1347;42.122;24.746;2022-10-03T14:49:22;3.33;;;2.87;;
2674;SDS011;1347;42.122;24.746;2022-10-03T14:51:54;3.30;;;3.00;;
2674;SDS011;1347;42.122;24.746;2022-10-03T14:54:26;5.23;;;4.53;;
2674;SDS011;1347;42.122;24.746;2022-10-03T14:56:55;4.00;;;3.60;;
2674;SDS011;1347;42.122;24.746;2022-10-03T14:59:26;3.70;;;3.30;;
2674;SDS011;1347;42.122;24.746;2022-10-03T15:01:57;2.73;;;2.43;;
2674;SDS011;1347;42.122;24.746;2022-10-03T15:04:27;7.13;;;3.50;;
2674;SDS011;1347;42.122;24.746;2022-10-03T15:06:57;8.33;;;3.37;;
2674;SDS011;1347;42.122;24.746;2022-10-03T15:09:27;3.77;;;3.47;;
2674;SDS011;1347;42.122;24.746;2022-10-03T15:11:59;3.40;;;3.20;;
2674;SDS011;1347;42.122;24.746;2022-10-03T15:14:34;6.43;;;3.63;;
2674;SDS011;1347;42.122;24.746;2022-10-03T15:17:04;4.33;;;3.93;;
2674;SDS011;1347;42.122;24.746;2022-10-03T15:19:41;4.97;;;4.57;;
2674;SDS011;1347;42.122;24.746;2022-10-03T15:22:18;7.60;;;5.00;;
2674;SDS011;1347;42.122;24.746;2022-10-03T15:24:59;6.63;;;4.17;;
2674;SDS011;1347;42.122;24.746;2022-10-03T15:27:30;5.00;;;4.60;;
2674;SDS011;1347;42.122;24.746;2022-10-03T15:30:02;4.53;;;4.20;;
2674;SDS011;1347;42.122;24.746;2022-10-03T15:32:32;5.20;;;4.70;;
2674;SDS011;1347;42.122;24.746;2022-10-03T15:35:02;4.40;;;4.00;;
2674;SDS011;1347;42.122;24.746;2022-10-03T15:37:31;10.30;;;4.97;;
2674;SDS011;1347;42.122;24.746;2022-10-03T15:40:05;5.10;;;4.40;;
2674;SDS011;1347;42.122;24.746;2022-10-03T15:42:47;5.20;;;4.80;;
2674;SDS011;1347;42.122;24.746;2022-10-03T15:45:21;5.17;;;4.70;;
2674;SDS011;1347;42.122;24.746;2022-10-03T15:47:53;6.13;;;5.50;;
2674;SDS011;1347;42.122;24.746;2022-10-03T15:50:22;6.70;;;5.47;;
2674;SDS011;1347;42.122;24.746;2022-10-03T15:52:53;6.17;;;5.53;;
2674;SDS011;1347;42.122;24.746;2022-10-03T15:55:23;5.60;;;5.10;;
2674;SDS011;1347;42.122;24.746;2022-10-03T15:57:57;5.43;;;5.03;;
2674;SDS011;1347;42.122;24.746;2022-10-03T16:00:28;6.43;;;5.83;;
2674;SDS011;1347;42.122;24.746;2022-10-03T16:02:59;4.50;;;4.17;;
2674;SDS011;1347;42.122;24.746;2022-10-03T16:05:34;4.77;;;4.27;;
2674;SDS011;1347;42.122;24.746;2022-10-03T16:08:03;4.23;;;3.77;;
2674;SDS011;1347;42.122;24.746;2022-10-03T16:10:34;4.10;;;3.73;;
2674;SDS011;1347;42.122;24.746;2022-10-03T16:13:05;8.03;;;3.47;;
2674;SDS011;1347;42.122;24.746;2022-10-03T16:15:51;6.03;;;4.07;;
2674;SDS011;1347;42.122;24.746;2022-10-03T16:18:43;3.73;;;3.43;;
2674;SDS011;1347;42.122;24.746;2022-10-03T16:21:18;5.40;;;3.20;;
2674;SDS011;1347;42.122;24.746;2022-10-03T16:23:55;4.83;;;4.33;;
2674;SDS011;1347;42.122;24.746;2022-10-03T16:26:25;5.63;;;4.40;;
2674;SDS011;1347;42.122;24.746;2022-10-03T16:28:59;5.77;;;5.20;;
2674;SDS011;1347;42.122;24.746;2022-10-03T16:31:36;4.13;;;3.43;;
2674;SDS011;1347;42.122;24.746;2022-10-03T16:34:11;6.20;;;3.40;;
2674;SDS011;1347;42.122;24.746;2022-10-03T16:36:40;6.30;;;3.50;;
2674;SDS011;1347;42.122;24.746;2022-10-03T16:39:14;4.60;;;3.50;;
2674;SDS011;1347;42.122;24.746;2022-10-03T16:41:46;4.43;;;4.03;;
2674;SDS011;1347;42.122;24.746;2022-10-03T16:44:19;4.13;;;3.83;;
2674;SDS011;1347;42.122;24.746;2022-10-03T16:46:51;4.23;;;3.90;;
2674;SDS011;1347;42.122;24.746;2022-10-03T16:49:33;22.67;;;5.43;;
2674;SDS011;1347;42.122;24.746;2022-10-03T16:52:21;4.87;;;4.47;;
2674;SDS011;1347;42.122;24.746;2022-10-03T16:54:56;4.37;;;3.97;;
2674;SDS011;1347;42.122;24.746;2022-10-03T16:57:28;4.70;;;4.30;;
2674;SDS011;1347;42.122;24.746;2022-10-03T17:00:02;6.20;;;5.00;;
2674;SDS011;1347;42.122;24.746;2022-10-03T17:02:34;4.97;;;4.57;;
2674;SDS011;1347;42.122;24.746;2022-10-03T17:05:03;5.37;;;4.90;;
2674;SDS011;1347;42.122;24.746;2022-10-03T17:07:37;7.03;;;5.70;;
2674;SDS011;1347;42.122;24.746;2022-10-03T17:12:54;6.13;;;5.13;;
2674;SDS011;1347;42.122;24.746;2022-10-03T17:15:25;7.80;;;6.40;;
2674;SDS011;1347;42.122;24.746;2022-10-03T17:17:57;11.07;;;5.30;;
2674;SDS011;1347;42.122;24.746;2022-10-03T17:20:36;5.77;;;5.27;;
2674;SDS011;1347;42.122;24.746;2022-10-03T17:23:09;8.67;;;6.60;;
2674;SDS011;1347;42.122;24.746;2022-10-03T17:25:44;5.27;;;4.80;;
2674;SDS011;1347;42.122;24.746;2022-10-03T17:28:24;7.67;;;4.80;;
2674;SDS011;1347;42.122;24.746;2022-10-03T17:30:59;4.83;;;4.30;;
2674;SDS011;1347;42.122;24.746;2022-10-03T17:33:32;5.70;;;5.10;;
2674;SDS011;1347;42.122;24.746;2022-10-03T17:36:25;5.07;;;4.63;;
2674;SDS011;1347;42.122;24.746;2022-10-03T17:39:04;6.97;;;4.60;;
2674;SDS011;1347;42.122;24.746;2022-10-03T17:41:40;4.23;;;3.80;;
2674;SDS011;1347;42.122;24.746;2022-10-03T17:44:18;4.23;;;3.83;;
2674;SDS011;1347;42.122;24.746;2022-10-03T17:46:56;5.80;;;4.53;;
2674;SDS011;1347;42.122;24.746;2022-10-03T17:49:28;4.13;;;3.83;;
2674;SDS011;1347;42.122;24.746;2022-10-03T17:52:14;4.20;;;3.90;;
2674;SDS011;1347;42.122;24.746;2022-10-03T17:54:45;3.90;;;3.50;;
2674;SDS011;1347;42.122;24.746;2022-10-03T17:57:15;3.37;;;3.07;;
2674;SDS011;1347;42.122;24.746;2022-10-03T17:59:49;5.27;;;4.83;;
2674;SDS011;1347;42.122;24.746;2022-10-03T18:02:22;4.07;;;3.20;;
2674;SDS011;1347;42.122;24.746;2022-10-03T18:05:02;11.17;;;4.20;;
2674;SDS011;1347;42.122;24.746;2022-10-03T18:07:36;4.30;;;3.90;;
2674;SDS011;1347;42.122;24.746;2022-10-03T18:10:05;4.33;;;3.97;;
2674;SDS011;1347;42.122;24.746;2022-10-03T18:12:44;7.10;;;3.13;;
2674;SDS011;1347;42.122;24.746;2022-10-03T18:15:24;3.70;;;3.40;;
2674;SDS011;1347;42.122;24.746;2022-10-03T18:18:21;3.43;;;3.13;;
2674;SDS011;1347;42.122;24.746;2022-10-03T18:21:13;6.40;;;5.00;;
2674;SDS011;1347;42.122;24.746;2022-10-03T18:23:49;3.43;;;3.13;;
2674;SDS011;1347;42.122;24.746;2022-10-03T18:26:28;2.80;;;2.60;;
2674;SDS011;1347;42.122;24.746;2022-10-03T18:29:00;3.37;;;3.10;;
2674;SDS011;1347;42.122;24.746;2022-10-03T18:31:40;2.73;;;2.53;;
2674;SDS011;1347;42.122;24.746;2022-10-03T18:34:12;7.27;;;2.63;;
2674;SDS011;1347;42.122;24.746;2022-10-03T18:36:46;3.10;;;2.87;;
2674;SDS011;1347;42.122;24.746;2022-10-03T18:39:17;3.00;;;2.70;;
2674;SDS011;1347;42.122;24.746;2022-10-03T18:41:48;2.53;;;2.33;;
2674;SDS011;1347;42.122;24.746;2022-10-03T18:44:17;2.73;;;2.53;;
2674;SDS011;1347;42.122;24.746;2022-10-03T18:46:47;4.30;;;3.37;;
2674;SDS011;1347;42.122;24.746;2022-10-03T18:49:19;7.90;;;3.10;;
2674;SDS011;1347;42.122;24.746;2022-10-03T18:51:52;6.23;;;5.63;;
2674;SDS011;1347;42.122;24.746;2022-10-03T18:54:28;5.03;;;3.77;;
2674;SDS011;1347;42.122;24.746;2022-10-03T18:57:05;2.83;;;2.63;;
2674;SDS011;1347;42.122;24.746;2022-10-03T18:59:42;2.63;;;2.43;;
2674;SDS011;1347;42.122;24.746;2022-10-03T19:02:15;6.50;;;3.03;;
2674;SDS011;1347;42.122;24.746;2022-10-03T19:04:49;3.20;;;2.97;;
2674;SDS011;1347;42.122;24.746;2022-10-03T19:07:23;2.73;;;2.53;;
2674;SDS011;1347;42.122;24.746;2022-10-03T19:10:02;3.90;;;3.50;;
2674;SDS011;1347;42.122;24.746;2022-10-03T19:12:37;3.60;;;2.60;;
2674;SDS011;1347;42.122;24.746;2022-10-03T19:15:12;3.20;;;2.90;;
2674;SDS011;1347;42.122;24.746;2022-10-03T19:17:47;4.07;;;3.10;;
2674;SDS011;1347;42.122;24.746;2022-10-03T19:20:24;2.93;;;2.70;;
2674;SDS011;1347;42.122;24.746;2022-10-03T19:22:57;2.80;;;2.60;;
2674;SDS011;1347;42.122;24.746;2022-10-03T19:25:29;3.20;;;2.90;;
2674;SDS011;1347;42.122;24.746;2022-10-03T19:28:03;2.43;;;2.20;;
2674;SDS011;1347;42.122;24.746;2022-10-03T19:30:33;3.60;;;2.80;;
2674;SDS011;1347;42.122;24.746;2022-10-03T19:33:02;3.23;;;2.93;;
2674;SDS011;1347;42.122;24.746;2022-10-03T19:35:32;5.30;;;3.20;;
2674;SDS011;1347;42.122;24.746;2022-10-03T19:38:05;3.40;;;3.10;;
2674;SDS011;1347;42.122;24.746;2022-10-03T19:40:42;5.80;;;2.90;;
2674;SDS011;1347;42.122;24.746;2022-10-03T19:43:22;2.57;;;2.30;;
2674;SDS011;1347;42.122;24.746;2022-10-03T19:46:00;2.73;;;2.50;;
2674;SDS011;1347;42.122;24.746;2022-10-03T19:48:47;12.63;;;2.90;;